Home > Products > Valid Products > TAF

000
FTUS41 KBTV 020800 AAA
TAFSLK
TAF AMD
KSLK 020811Z 0208/0306 00000KT 3SM BR FEW002 BKN050
      TEMPO 0208/0212 1SM BR BKN002
     FM021200 19005KT P6SM FEW050 SCT150
     FM021500 19005KT P6SM VCSH SCT050 SCT100
     FM030000 00000KT P6SM SCT050 SCT100=



000
FTUS41 KBTV 020800 AAA
TAFMPV
TAF AMD
KMPV 020809Z 0208/0306 VRB02KT P6SM FEW050 SCT200
      TEMPO 0208/0210 3SM BR FEW002 SCT050
     FM021000 VRB02KT 1SM BR BKN002
      TEMPO 0211/0213 3SM BR SCT002 BKN050
     FM021300 VRB03KT P6SM SCT040 SCT150
     FM021500 18006KT P6SM VCSH SCT040 SCT100
     FM030000 VRB02KT P6SM SCT040 SCT120=



000
FTUS41 KBTV 020500
TAFMPV
TAF
KMPV 020525Z 0206/0306 VRB02KT P6SM FEW050 SCT200
      TEMPO 0206/0208 3SM BR FEW002 SCT050
     FM020800 VRB02KT 1SM BR BKN002
      TEMPO 0211/0213 3SM BR SCT002 BKN050
     FM021300 VRB03KT P6SM SCT040 SCT150
     FM021500 18006KT P6SM VCSH SCT040 SCT100
     FM030000 VRB02KT P6SM SCT040 SCT120=



000
FTUS41 KBTV 020500
TAFBTV
TAF
KBTV 020525Z 0206/0306 18008KT P6SM SCT050 SCT150
     FM021500 19008G14KT P6SM VCSH SCT050 SCT100
     FM030000 17005KT P6SM SCT050 SCT120=



000
FTUS41 KBTV 020500
TAFSLK
TAF
KSLK 020525Z 0206/0306 00000KT 4SM BR FEW002 FEW050
      TEMPO 0206/0208 1SM BR SCT002
     FM020800 00000KT 1SM BR BKN002
      TEMPO 0210/0212 3SM BR SCT002 BKN050
     FM021200 19005KT P6SM FEW050 SCT150
     FM021500 19005KT P6SM VCSH SCT050 SCT100
     FM030000 00000KT P6SM SCT050 SCT100=



000
FTUS41 KBTV 020500
TAFMSS
TAF
KMSS 020525Z 0206/0306 00000KT 5SM BR FEW050 SCT100
      TEMPO 0206/0209 2SM BR SCT001 SCT050 BKN100
     FM021200 21004KT P6SM SCT050 SCT100
     FM021500 22005KT P6SM VCSH SCT050 SCT100
     FM030000 00000KT P6SM SCT050 SCT120=



000
FTUS41 KBTV 020300 AAA
TAFMSS
TAF AMD
KMSS 020308Z 0203/0224 00000KT 5SM BR FEW050
      TEMPO 0203/0206 1SM BR SCT001 SCT050
     FM020600 VRB02KT 5SM BR FEW001 FEW050 FEW200
     FM021200 21004KT P6SM SCT050 SCT100
     FM021500 22005KT P6SM VCSH SCT050 SCT100=



000
FTUS41 KBTV 020100 AAA
TAFSLK
TAF AMD
KSLK 020156Z 0202/0224 VRB02KT P6SM FEW050 SCT150
      TEMPO 0202/0204 4SM BR FEW001
     FM020600 VRB02KT 4SM BR FEW001 FEW050 SCT150
      TEMPO 0207/0211 2SM BR SCT001
     FM021200 19005KT P6SM FEW050 SCT150
     FM021500 19005KT P6SM VCSH SCT050 SCT100=



000
FTUS41 KBTV 012300
TAFSLK
TAF
KSLK 012324Z 0200/0224 VRB02KT P6SM FEW050 SCT150
     FM020600 VRB02KT 4SM BR FEW001 FEW050 SCT150
      TEMPO 0207/0211 2SM BR SCT001
     FM021200 19005KT P6SM FEW050 SCT150
     FM021500 19005KT P6SM VCSH SCT050 SCT100=



000
FTUS41 KBTV 012300
TAFMPV
TAF
KMPV 012324Z 0200/0224 VRB02KT P6SM FEW050 SCT200
     FM020600 VRB02KT 3SM BR FEW001 FEW050 SCT200
     FM021200 VRB03KT P6SM SCT040 SCT150
     FM021500 18006KT P6SM VCSH SCT040 SCT150=



000
FTUS41 KBTV 012300
TAFMSS
TAF
KMSS 012324Z 0200/0224 VRB02KT P6SM FEW050 FEW200
     FM020600 VRB02KT 5SM BR FEW001 FEW050 FEW200
     FM021200 21004KT P6SM SCT050 SCT100
     FM021500 22005KT P6SM VCSH SCT050 SCT100=



000
FTUS41 KBTV 012300
TAFBTV
TAF
KBTV 012324Z 0200/0224 18005KT P6SM SCT050 SCT150
      TEMPO 0202/0206 18007G14KT
     FM021500 19007G14KT P6SM VCSH SCT050 SCT100=



000
FTUS41 KBTV 011700
TAFMSS
TAF
KMSS 011723Z 0118/0218 22009KT P6SM FEW070
     FM020000 21003KT P6SM FEW250
     FM021200 23006KT P6SM SCT040 BKN150=



000
FTUS41 KBTV 011700
TAFSLK
TAF
KSLK 011723Z 0118/0218 23009KT P6SM SCT050 BKN110
     FM020000 00000KT P6SM SCT050
     FM020600 00000KT 3/4SM BR BKN002
     FM021300 21006KT P6SM SCT040 BKN120=



000
FTUS41 KBTV 011700
TAFBTV
TAF
KBTV 011723Z 0118/0218 19009G15KT P6SM VCSH FEW035 SCT070
     FM012300 17006KT P6SM SCT180
     FM021200 18008KT P6SM SCT050 BKN150=



000
FTUS41 KBTV 011700
TAFMPV
TAF
KMPV 011723Z 0118/0218 18008KT P6SM SCT035 SCT050
     FM020200 VRB02KT P6SM SCT200
     FM020600 00000KT 1/2SM FG VV001
     FM021300 17006KT P6SM SCT040 BKN080=



000
FTUS41 KBTV 011300 AAA
TAFBTV
TAF AMD
KBTV 011336Z 0114/0212 18010KT P6SM FEW070
     FM011600 20010G20KT P6SM SCT070
     FM012300 17006KT P6SM SCT050=



000
FTUS41 KBTV 011100 AAA
TAFSLK
TAF AMD
KSLK 011155Z 0112/0212 VRB03KT P6SM SCT050
      TEMPO 0112/0113 3SM BR SCT001
     FM011500 22009KT P6SM SCT050
     FM020000 00000KT P6SM SCT050
     FM020600 00000KT 3/4SM BR BKN002=



000
FTUS41 KBTV 011100
TAFMPV
TAF
KMPV 011127Z 0112/0212 00000KT 3SM BR SCT001
      TEMPO 0112/0113 3/4SM BR BKN001
     FM011400 19006KT P6SM SCT060
     FM020600 00000KT 1/2SM FG VV001=



000
FTUS41 KBTV 011100
TAFMSS
TAF
KMSS 011127Z 0112/0212 20004KT P6SM SCT080
     FM011500 23009KT P6SM SCT060
     FM020000 21003KT P6SM SCT060=



000
FTUS41 KBTV 011100
TAFSLK
TAF
KSLK 011127Z 0112/0212 00000KT 1SM BR OVC001
      TEMPO 0112/0113 4SM BR SCT001
     FM011300 VRB03KT P6SM SCT050
     FM011500 22009KT P6SM SCT050
     FM020000 00000KT P6SM SCT050
     FM020600 00000KT 3/4SM BR BKN002=



000
FTUS41 KBTV 011100
TAFBTV
TAF
KBTV 011127Z 0112/0212 16003KT P6SM SCT070
     FM011500 20008KT P6SM SCT070=



000
FTUS41 KBTV 010700 AAA
TAFMPV
TAF AMD
KMPV 010710Z 0107/0206 00000KT 3SM BR SCT002
      TEMPO 0107/0108 3/4SM BR BKN002
     FM010800 00000KT 1/4SM FG VV001
     FM011400 19006KT P6SM SCT060=



000
FTUS41 KBTV 010500
TAFBTV
TAF
KBTV 010523Z 0106/0206 VRB04KT P6SM SKC
     FM011500 20008KT P6SM SCT070=



000
FTUS41 KBTV 010500
TAFMSS
TAF
KMSS 010523Z 0106/0206 20003KT P6SM SKC
     FM011500 23009KT P6SM FEW060
     FM020000 21003KT P6SM SCT060=



000
FTUS41 KBTV 010500
TAFMPV
TAF
KMPV 010523Z 0106/0206 00000KT P6SM SCT100
      TEMPO 0106/0107 3SM BR SCT002
     FM010700 00000KT 1/4SM FG VV001
     FM011400 19006KT P6SM SCT060=



000
FTUS41 KBTV 010500
TAFSLK
TAF
KSLK 010523Z 0106/0206 VRB03KT P6SM SKC
      TEMPO 0106/0107 1 1/2SM BR SCT001
     FM010700 00000KT 1/2SM FG VV001
     FM011200 00000KT P6SM SKC
     FM011500 22009KT P6SM SCT050
     FM020000 00000KT P6SM SCT050=



000
FTUS41 KBTV 010200 AAA
TAFMPV
TAF AMD
KMPV 010238Z 0103/0124 00000KT P6SM SCT090
     FM010700 00000KT 1/4SM FG VV001
     FM011400 18004KT P6SM SCT070=



000
FTUS41 KBTV 312300
TAFSLK
TAF
KSLK 312323Z 0100/0124 VRB03KT P6SM SKC
      TEMPO 0104/0106 1 1/2SM BR SCT001
     FM010600 00000KT 1/2SM FG VV001
     FM011200 00000KT P6SM SKC
     FM011500 22009KT P6SM SCT060=



000
FTUS41 KBTV 312300
TAFMSS
TAF
KMSS 312323Z 0100/0124 21005KT P6SM SKC
     FM011500 23009KT P6SM FEW060=



000
FTUS41 KBTV 312300
TAFMPV
TAF
KMPV 312323Z 0100/0124 VRB04KT P6SM SKC
     FM010200 00000KT P6SM SKC
     FM010600 00000KT 1/4SM FG VV001
     FM011400 18004KT P6SM SCT070=



000
FTUS41 KBTV 312300
TAFBTV
TAF
KBTV 312323Z 0100/0124 VRB04KT P6SM SKC
     FM011500 20008KT P6SM SCT070=



000
FTUS41 KBTV 312000 AAA
TAFBTV
TAF AMD
KBTV 312030Z 3121/0118 20012G18KT P6SM SCT045
     FM312100 21012G18KT 1 1/2SM +RA BR BKN045
     FM312130 20008KT P6SM SCT045
     FM312300 19004KT P6SM SKC
     FM011500 19008KT P6SM SCT050=



000
FTUS41 KBTV 311900 AAA
TAFSLK
TAF AMD
KSLK 311903Z 3119/0118 25008KT 2SM SHRA OVC020
     FM311930 23007KT P6SM VCSH BKN035
     FM312100 22007KT P6SM SCT040
     FM010700 21005KT 2SM BR SCT150
     FM010900 20005KT 3/4SM BR SCT001
     FM011200 21006KT P6SM SCT040=



000
FTUS41 KBTV 311700
TAFMPV
TAF
KMPV 311722Z 3118/0118 18008KT 6SM -SHRA VCTS SCT025 BKN070CB
      TEMPO 3118/3119 23015G25KT 2SM +TSRA OVC020CB
     FM312200 19009KT P6SM BKN060
     FM010600 VRB03KT 3SM BR SKC
     FM010900 VRB03KT 1/2SM FG VV002
     FM011200 19004KT P6SM SCT080=



000
FTUS41 KBTV 311700
TAFMSS
TAF
KMSS 311722Z 3118/0118 24006KT P6SM VCSH BKN060
      TEMPO 3118/3120 5SM SHRA OVC035
     FM312100 24005KT P6SM SCT040
     FM011500 22009KT P6SM SCT050=



000
FTUS41 KBTV 311700
TAFSLK
TAF
KSLK 311722Z 3118/0118 23008KT P6SM VCSH SCT035
     FM312100 22007KT P6SM SCT040
     FM010700 21005KT 2SM BR SCT150
     FM010900 20005KT 3/4SM BR SCT001
     FM011200 21006KT P6SM SCT040=



000
FTUS41 KBTV 311700
TAFBTV
TAF
KBTV 311722Z 3118/0118 19010KT 6SM -SHRA VCTS SCT030CB OVC060
     FM312000 20011KT P6SM SCT045
     FM312300 19004KT P6SM SKC
     FM011500 19008KT P6SM SCT050=



000
FTUS41 KBTV 311500 AAA
TAFBTV
TAF AMD
KBTV 311545Z 3116/0112 18012G25KT P6SM SCT040 BKN100
     FM311630 21010KT 6SM -SHRA VCTS SCT030 BKN060CB
      TEMPO 3117/3118 25015G25KT 3SM +TSRA OVC025CB
     FM312000 19008KT P6SM VCSH BKN050
     FM010000 18006KT P6SM SCT050=



000
FTUS41 KBTV 311400 AAA
TAFSLK
TAF AMD
KSLK 311450Z 3115/0112 19007KT 6SM -SHRA VCTS SCT020 BKN080CB
      TEMPO 3115/3116 3SM TSRA OVC020CB
     FM311700 23007KT P6SM VCSH BKN040
     FM010000 22004KT P6SM SCT040
     FM010600 VRB02KT 1SM BR BKN002=



000
FTUS41 KBTV 311300 AAA
TAFMSS
TAF AMD
KMSS 311358Z 3114/0112 18005KT 6SM -SHRA VCTS BKN070CB
      TEMPO 3114/3115 3SM -TSRA OVC020CB
     FM311600 22009KT P6SM VCSH BKN045
     FM312100 23005KT P6SM SCT050=



000
FTUS41 KBTV 311100
TAFMPV
TAF
KMPV 311122Z 3112/0112 19004KT P6SM SCT050 BKN080
      TEMPO 3112/3113 4SM BR SCT002 BKN050
     FM311600 19007KT 6SM -SHRA VCTS BKN035CB OVC050
     FM312100 19005KT P6SM VCSH BKN040
     FM010000 20004KT P6SM SCT040
     FM010600 00000KT 1/2SM FG OVC002=



000
FTUS41 KBTV 311100
TAFMSS
TAF
KMSS 311122Z 3112/0112 21003KT P6SM SCT040 BKN080
     FM311400 22008KT 6SM -SHRA VCTS BKN035CB OVC060
     FM311700 22009KT P6SM VCSH BKN045
     FM312100 23005KT P6SM SCT050=



000
FTUS41 KBTV 311100
TAFSLK
TAF
KSLK 311122Z 3112/0112 VRB03KT P6SM SCT040 BKN080
     FM311400 22007KT 6SM -SHRA VCTS BKN035CB OVC060
     FM311900 23007KT P6SM VCSH BKN040
     FM010000 22004KT P6SM SCT040
     FM010600 VRB02KT 1SM BR BKN002=



000
FTUS41 KBTV 311100
TAFBTV
TAF
KBTV 311122Z 3112/0112 VRB03KT P6SM SCT040 SCT100
     FM311400 18007KT P6SM SCT040 BKN100
     FM311600 18010KT 6SM -SHRA VCTS BKN035CB BKN060
     FM312000 19008KT P6SM VCSH BKN050
     FM010000 18006KT P6SM SCT050=



000
FTUS41 KBTV 311000 AAC
TAFMPV
TAF AMD
KMPV 311013Z 3110/0106 00000KT P6SM SCT050 BKN080
      TEMPO 3110/3111 5SM BR SCT002 BKN050
     FM311100 00000KT 5SM BR SCT002 BKN080
      TEMPO 3111/3112 2SM BR BKN002
     FM311300 19005KT P6SM SCT040 BKN080
     FM311500 19007KT 6SM -SHRA BKN035 OVC050
     FM312200 19005KT P6SM VCSH BKN040
     FM010000 20004KT P6SM SCT040=



000
FTUS41 KBTV 311000 AAA
TAFBTV
TAF AMD
KBTV 311010Z 3110/0106 VRB03KT P6SM SCT040 SCT100
     FM311300 17006KT P6SM SCT040 BKN100
     FM311500 18008KT 6SM -SHRA BKN035 BKN060
     FM312000 19008KT P6SM VCSH BKN050
     FM010000 18006KT P6SM SCT050=



000
FTUS41 KBTV 311000 AAB
TAFMSS
TAF AMD
KMSS 311002Z 3110/0106 00000KT 6SM BR SCT100
      TEMPO 3110/3111 3SM BR SCT015
     FM311200 21003KT P6SM SCT040 BKN080
     FM311400 22009KT 6SM -SHRA BKN035 OVC060
     FM312000 23007KT P6SM SCT050=



000
FTUS41 KBTV 310900 AAA
TAFSLK
TAF AMD
KSLK 310959Z 3110/0106 00000KT 2SM BR SCT002
      TEMPO 3110/3111 1/2SM FG OVC002
     FM311200 VRB03KT P6SM SCT040 BKN080
     FM311400 22007KT 6SM -SHRA BKN040 OVC060
     FM311900 23007KT P6SM VCSH BKN040
     FM010000 22004KT P6SM SCT040=



000
FTUS41 KBTV 310900 AAB
TAFMPV
TAF AMD
KMPV 310909Z 3109/0106 VRB03KT P6SM SCT050 BKN080
      TEMPO 3109/3110 5SM BR SCT002 BKN050
     FM311000 00000KT 5SM BR SCT002 BKN080
      TEMPO 3110/3112 2SM BR BKN002
     FM311200 VRB02KT 4SM BR VCSH BKN045 OVC060
     FM311400 19007KT 6SM -SHRA BKN035 OVC050
     FM312200 19005KT P6SM VCSH BKN040
     FM010000 20004KT P6SM SCT040=



000
FTUS41 KBTV 310700 AAA
TAFMPV
TAF AMD
KMPV 310718Z 3107/0106 VRB03KT P6SM SCT050 BKN080
      TEMPO 3107/3109 5SM BR SCT002 BKN050
     FM310900 00000KT 5SM BR SCT002 BKN080
      TEMPO 3109/3112 2SM BR BKN002
     FM311200 VRB02KT 4SM BR VCSH BKN045 OVC060
     FM311400 19007KT 6SM -SHRA BKN035 OVC050
     FM312200 19005KT P6SM VCSH BKN040
     FM010000 20004KT P6SM SCT040=



000
FTUS41 KBTV 310700 AAA
TAFBTV
TAF AMD
KBTV 310711Z 3107/0106 18005KT P6SM BKN050 BKN080
      TEMPO 3107/3108 34005KT 6SM -SHRA BR OVC045
     FM311300 18008KT 6SM -SHRA BKN035 BKN060
     FM312000 19008KT P6SM VCSH BKN050
     FM010000 18006KT P6SM SCT050=



000
FTUS41 KBTV 310600 AAA
TAFMSS
TAF AMD
KMSS 310656Z 3107/0106 00000KT 6SM BR SCT100
      TEMPO 3107/3109 2SM BR
     FM310900 21003KT P6SM SCT040 BKN080
     FM311100 22009KT 6SM -SHRA BKN035 OVC060
     FM312000 23007KT P6SM SCT050=



000
FTUS41 KBTV 310500
TAFSLK
TAF
KSLK 310524Z 3106/0106 VRB03KT P6SM VCSH SCT040 BKN080
     FM310800 00000KT 5SM BR SCT005 BKN080
      TEMPO 3108/3110 2SM BR BKN005
     FM311200 22007KT 6SM -SHRA BKN040 OVC060
     FM311900 23007KT P6SM VCSH BKN040
     FM010000 22004KT P6SM SCT040=



000
FTUS41 KBTV 310500
TAFMSS
TAF
KMSS 310524Z 3106/0106 VRB03KT P6SM SCT035 SCT080
     FM310800 21003KT P6SM VCSH SCT040 BKN080
     FM311100 22009KT 6SM -SHRA BKN035 OVC060
     FM312000 23007KT P6SM SCT050=



000
FTUS41 KBTV 310500
TAFMPV
TAF
KMPV 310524Z 3106/0106 VRB03KT P6SM BKN080
      TEMPO 3106/3108 3SM BR SCT002 BKN080
     FM310800 00000KT 5SM BR SCT002 BKN080
      TEMPO 3108/3112 2SM BR BKN002
     FM311200 VRB02KT 4SM BR VCSH BKN045 OVC060
     FM311400 19007KT 6SM -SHRA BKN035 OVC050
     FM312200 19005KT P6SM VCSH BKN040
     FM010000 20004KT P6SM SCT040=



000
FTUS41 KBTV 310500
TAFBTV
TAF
KBTV 310524Z 3106/0106 18006KT P6SM VCSH BKN050 BKN080
     FM311300 18008KT 6SM -SHRA BKN035 BKN060
     FM312000 19008KT P6SM VCSH BKN050
     FM010000 18006KT P6SM SCT050=



000
FTUS41 KBTV 310200 AAA
TAFBTV
TAF AMD
KBTV 310241Z 3103/3124 18006KT P6SM SCT080
     FM310600 17004KT P6SM VCSH BKN050 BKN080
     FM311300 18008KT 6SM -SHRA BKN035 BKN060
     FM312000 19007KT P6SM SCT050=



000
FTUS41 KBTV 310200 AAA
TAFSLK
TAF AMD
KSLK 310225Z 3102/3124 21003KT P6SM VCSH SCT040 BKN060
      TEMPO 3103/3105 5SM -SHRA BR OVC040
     FM311000 22007KT 6SM -SHRA BKN040 OVC060
     FM311800 23007KT P6SM BKN050=



000
FTUS41 KBTV 302300
TAFMSS
TAF
KMSS 302334Z 3100/3124 21005KT P6SM SCT035 BKN080
     FM310800 21003KT P6SM VCSH SCT040 BKN080
     FM311000 22009KT 6SM -SHRA BKN035 OVC060
     FM311900 23007KT P6SM SCT250=



000
FTUS41 KBTV 302300
TAFBTV
TAF
KBTV 302334Z 3100/3124 18007KT P6SM SCT045 SCT100
     FM310600 VRB06KT P6SM BKN060 BKN080
     FM311300 18008KT 6SM -SHRA BKN035 BKN060
     FM312000 19007KT P6SM SCT050=



000
FTUS41 KBTV 302300
TAFSLK
TAF
KSLK 302334Z 3100/3124 21003KT P6SM VCSH SCT040 BKN060
     FM310800 VRB02KT 5SM BR SCT020 BKN045
     FM311000 22007KT 6SM -SHRA BKN040 OVC060
     FM311800 23007KT P6SM BKN050=



000
FTUS41 KBTV 302300
TAFMPV
TAF
KMPV 302334Z 3100/3124 18004KT P6SM SKC
     FM310500 00000KT 2SM BR SCT002 BKN080
     FM311200 VRB02KT 4SM BR VCSH BKN045 OVC060
     FM311400 19007KT 6SM -SHRA BKN035 OVC050
     FM312200 19005KT P6SM SCT050=



000
FTUS41 KBTV 301700
TAFSLK
TAF
KSLK 301733Z 3018/3118 22006KT P6SM VCSH SCT045 BKN050
     FM302300 21003KT P6SM VCSH SCT030 BKN060
     FM310800 VRB02KT 5SM BR SCT020 BKN045
     FM311300 22007KT P6SM VCSH BKN040 OVC060=



000
FTUS41 KBTV 301700
TAFMSS
TAF
KMSS 301733Z 3018/3118 23010KT P6SM VCSH SCT035 BKN100
     FM302300 21005KT P6SM SCT035 BKN080
     FM310400 21003KT P6SM VCSH SCT040 BKN060
     FM311400 22009KT P6SM VCSH BKN035 OVC060=



000
FTUS41 KBTV 301700
TAFMPV
TAF
KMPV 301733Z 3018/3118 18004KT P6SM BKN040 OVC060
     FM310500 00000KT 2SM BR SCT002 BKN080
     FM311200 VRB02KT 4SM BR VCSH BKN045 OVC060
     FM311400 19007KT P6SM VCSH BKN035 OVC050=



000
FTUS41 KBTV 301700
TAFBTV
TAF
KBTV 301733Z 3018/3118 18007KT P6SM SCT045 SCT100
     FM310600 VRB06KT P6SM VCSH SCT045 BKN060 BKN080
     FM311300 18008KT P6SM VCSH BKN035 BKN060=



000
FTUS41 KBTV 301300 AAA
TAFMPV
TAF AMD
KMPV 301314Z 3013/3112 00000KT 3SM BR SCT001 BKN060
      TEMPO 3013/3015 1/2SM FG VV001
     FM301500 18004KT P6SM SCT045
     FM310600 00000KT 3SM BR SCT002 BKN080=



000
FTUS41 KBTV 301100
TAFBTV
TAF
KBTV 301124Z 3012/3112 VRB03KT P6SM BCFG SCT001 BKN080
     FM301300 18004KT P6SM SCT045 SCT080
     FM310600 17006KT P6SM SCT045 BKN080=



000
FTUS41 KBTV 301100
TAFMSS
TAF
KMSS 301124Z 3012/3112 23005KT P6SM SCT040 BKN090
     FM301800 22010KT P6SM VCSH BKN035
     FM310000 21003KT P6SM SCT035 BKN080=



000
FTUS41 KBTV 301100
TAFSLK
TAF
KSLK 301124Z 3012/3112 22004KT P6SM SCT040 BKN080
     FM301800 22006KT P6SM VCSH BKN040
     FM310000 21003KT P6SM SCT030 BKN060=



000
FTUS41 KBTV 301100
TAFMPV
TAF
KMPV 301124Z 3012/3112 00000KT 1/2SM FG OVC001
     FM301300 18004KT P6SM SCT045
     FM310600 00000KT 3SM BR SCT002 BKN080=



    US Dept of Commerce
    National Oceanic and Atmospheric Administration
    National Weather Service
    1325 East West Highway
    Silver Spring, MD 20910
    Page Author: NWS Internet Services Team
Disclaimer
Information Quality
Credits
Glossary
Privacy Policy
Freedom of Information Act (FOIA)
About Us
Career Opportunities